Time;durP1;ratioP1;P1;durP2;ratioP2;P2;SDS_P1;SDS_P2;PMS_P1;PMS_P2;Temp;Humidity;BMP_temperature;BMP_pressure;BME280_temperature;BME280_humidity;BME280_pressure;Samples;Min_cycle;Max_cycle;Signal;HPM_P1;HPM_P2
2023/04/15 00:00:18;;;;;;;5.47;3.60;;;;;;;;;;5020054;28;20227;-82
2023/04/15 00:02:47;;;;;;;6.33;3.80;;;;;;;;;;5030814;28;20241;-83
2023/04/15 00:05:14;;;;;;;4.63;3.70;;;;;;;;;;5028570;28;20234;-83
2023/04/15 00:07:41;;;;;;;6.37;3.93;;;;;;;;;;5019941;28;20226;-83
2023/04/15 00:10:08;;;;;;;6.23;4.10;;;;;;;;;;5022915;28;20202;-82
2023/04/15 00:12:35;;;;;;;6.20;4.13;;;;;;;;;;5020371;28;20231;-83
2023/04/15 00:15:03;;;;;;;4.77;3.80;;;;;;;;;;5019596;28;20318;-83
2023/04/15 00:17:30;;;;;;;4.40;4.00;;;;;;;;;;5021810;28;20329;-82
2023/04/15 00:19:59;;;;;;;5.00;4.47;;;;;;;;;;5019386;28;20227;-83
2023/04/15 00:22:26;;;;;;;4.30;3.60;;;;;;;;;;5020441;28;20277;-82
2023/04/15 00:24:53;;;;;;;4.67;3.20;;;;;;;;;;5033404;28;20230;-83
2023/04/15 00:27:20;;;;;;;6.10;3.20;;;;;;;;;;5026050;28;20238;-82
2023/04/15 00:29:47;;;;;;;4.63;3.07;;;;;;;;;;5026665;28;20290;-82
2023/04/15 00:32:14;;;;;;;5.37;3.30;;;;;;;;;;5034783;28;20275;-83
2023/04/15 00:34:41;;;;;;;7.40;3.30;;;;;;;;;;5034397;28;20215;-82
2023/04/15 00:37:10;;;;;;;5.70;3.27;;;;;;;;;;5034141;28;20241;-83
2023/04/15 00:39:38;;;;;;;5.70;3.40;;;;;;;;;;5034222;28;20781;-82
2023/04/15 00:42:05;;;;;;;5.80;3.57;;;;;;;;;;5036213;28;20242;-83
2023/04/15 00:44:32;;;;;;;3.87;3.03;;;;;;;;;;5036879;28;20262;-82
2023/04/15 00:47:00;;;;;;;4.93;3.50;;;;;;;;;;5034543;28;20262;-83
2023/04/15 00:49:28;;;;;;;7.10;4.13;;;;;;;;;;5037027;28;20199;-82
2023/04/15 00:51:56;;;;;;;4.00;3.60;;;;;;;;;;5044959;28;20249;-82
2023/04/15 00:54:24;;;;;;;6.00;4.07;;;;;;;;;;5045490;28;20231;-82
2023/04/15 00:56:51;;;;;;;5.57;4.03;;;;;;;;;;5043399;28;20245;-82
2023/04/15 00:59:19;;;;;;;5.37;4.00;;;;;;;;;;5044720;28;20230;-82
2023/04/15 01:01:47;;;;;;;6.50;4.20;;;;;;;;;;5039898;28;20226;-82
2023/04/15 01:04:14;;;;;;;4.47;4.07;;;;;;;;;;5024029;28;20231;-82
2023/04/15 01:06:41;;;;;;;4.60;4.20;;;;;;;;;;5016135;28;20231;-82
2023/04/15 01:09:08;;;;;;;7.77;4.27;;;;;;;;;;5020640;28;20264;-82
2023/04/15 01:11:36;;;;;;;5.77;4.30;;;;;;;;;;5034652;28;20626;-82
2023/04/15 01:14:04;;;;;;;5.43;4.00;;;;;;;;;;5034154;28;20317;-83
2023/04/15 01:16:31;;;;;;;4.97;4.37;;;;;;;;;;5034244;28;20242;-82
2023/04/15 01:18:58;;;;;;;7.50;4.73;;;;;;;;;;5034438;28;20559;-82
2023/04/15 01:21:26;;;;;;;5.40;4.23;;;;;;;;;;5033871;28;20712;-82
2023/04/15 01:23:54;;;;;;;6.90;4.60;;;;;;;;;;5034384;28;20233;-82
2023/04/15 01:26:22;;;;;;;5.60;4.60;;;;;;;;;;5033345;28;20298;-82
2023/04/15 01:28:49;;;;;;;8.23;4.43;;;;;;;;;;5033951;28;20621;-83
2023/04/15 01:31:16;;;;;;;6.20;4.37;;;;;;;;;;5033579;28;20246;-83
2023/04/15 01:33:44;;;;;;;7.60;4.70;;;;;;;;;;5033807;28;20711;-82
2023/04/15 01:36:11;;;;;;;6.07;5.07;;;;;;;;;;5032998;28;20734;-82
2023/04/15 01:38:38;;;;;;;4.73;4.07;;;;;;;;;;5033322;28;20218;-82
2023/04/15 01:41:06;;;;;;;6.83;4.10;;;;;;;;;;5033153;28;20241;-82
2023/04/15 01:43:36;;;;;;;6.67;4.13;;;;;;;;;;5033772;28;20328;-82
2023/04/15 01:46:03;;;;;;;4.93;4.20;;;;;;;;;;5033353;28;20237;-83
2023/04/15 01:48:30;;;;;;;4.30;3.53;;;;;;;;;;5033380;28;20546;-83
2023/04/15 01:50:57;;;;;;;8.50;3.83;;;;;;;;;;5033241;28;20241;-83
2023/04/15 01:53:24;;;;;;;3.90;3.53;;;;;;;;;;5033669;28;20229;-83
2023/04/15 01:55:51;;;;;;;4.60;3.60;;;;;;;;;;5032974;28;20331;-83
2023/04/15 01:58:20;;;;;;;6.00;3.63;;;;;;;;;;5033053;28;20200;-82
2023/04/15 02:00:49;;;;;;;4.27;3.43;;;;;;;;;;5032389;28;20242;-83
2023/04/15 02:03:16;;;;;;;7.00;4.17;;;;;;;;;;5033398;28;20230;-83
2023/04/15 02:05:44;;;;;;;3.70;3.40;;;;;;;;;;5032834;28;20237;-83
2023/04/15 02:08:11;;;;;;;5.63;3.37;;;;;;;;;;5033492;28;20218;-82
2023/04/15 02:10:38;;;;;;;6.60;3.50;;;;;;;;;;5032788;28;20217;-82
2023/04/15 02:13:05;;;;;;;5.30;3.83;;;;;;;;;;5033094;28;20261;-83
2023/04/15 02:15:33;;;;;;;5.07;4.10;;;;;;;;;;5032560;28;20210;-83
2023/04/15 02:18:01;;;;;;;3.63;3.27;;;;;;;;;;5032846;28;20284;-82
2023/04/15 02:20:29;;;;;;;3.60;3.30;;;;;;;;;;5032199;28;20226;-82
2023/04/15 02:22:56;;;;;;;5.87;3.83;;;;;;;;;;5033188;28;20233;-83
2023/04/15 02:25:23;;;;;;;6.90;3.17;;;;;;;;;;5032507;28;20651;-83
2023/04/15 02:27:50;;;;;;;5.90;3.50;;;;;;;;;;5032905;28;20213;-82
2023/04/15 02:30:18;;;;;;;4.13;3.50;;;;;;;;;;5032267;28;20210;-83
2023/04/15 02:32:45;;;;;;;4.20;3.67;;;;;;;;;;5032988;28;20205;-83
2023/04/15 02:35:14;;;;;;;7.27;4.17;;;;;;;;;;5032549;28;20201;-83
2023/04/15 02:37:44;;;;;;;5.33;3.80;;;;;;;;;;5032332;28;20241;-83
2023/04/15 02:40:12;;;;;;;9.80;4.17;;;;;;;;;;5032532;28;20264;-83
2023/04/15 02:42:39;;;;;;;4.40;3.80;;;;;;;;;;5032161;28;20249;-84
2023/04/15 02:45:07;;;;;;;5.17;3.80;;;;;;;;;;5032335;28;20302;-83
2023/04/15 02:47:34;;;;;;;5.63;4.00;;;;;;;;;;5030797;28;20306;-83
2023/04/15 02:50:01;;;;;;;6.80;4.07;;;;;;;;;;5032409;28;20213;-81
2023/04/15 02:52:30;;;;;;;5.33;3.50;;;;;;;;;;5031938;28;20242;-83
2023/04/15 02:54:59;;;;;;;5.17;3.80;;;;;;;;;;5031944;28;20230;-83
2023/04/15 02:57:27;;;;;;;4.37;3.97;;;;;;;;;;5031614;28;20235;-83
2023/04/15 02:59:54;;;;;;;4.97;3.70;;;;;;;;;;5031638;28;20771;-83
2023/04/15 03:02:21;;;;;;;5.30;4.40;;;;;;;;;;5031215;28;20257;-83
2023/04/15 03:04:48;;;;;;;4.87;4.40;;;;;;;;;;5032193;28;20229;-82
2023/04/15 03:07:15;;;;;;;4.63;4.17;;;;;;;;;;5031286;28;20241;-83
2023/04/15 03:09:44;;;;;;;5.93;4.50;;;;;;;;;;5030773;28;20220;-83
2023/04/15 03:12:11;;;;;;;6.00;3.90;;;;;;;;;;5031407;28;20241;-83
2023/04/15 03:14:38;;;;;;;5.07;4.57;;;;;;;;;;5077664;23;20715;-86
2023/04/15 03:17:05;;;;;;;7.53;4.40;;;;;;;;;;5032522;28;20231;-86
2023/04/15 03:19:32;;;;;;;5.67;4.60;;;;;;;;;;5033506;28;20588;-87
2023/04/15 03:22:02;;;;;;;9.20;4.83;;;;;;;;;;5027036;28;20321;-86
2023/04/15 03:24:30;;;;;;;7.50;4.40;;;;;;;;;;5041142;28;20232;-86
2023/04/15 03:26:58;;;;;;;5.77;4.33;;;;;;;;;;5041897;28;20226;-86
2023/04/15 03:29:25;;;;;;;6.50;4.50;;;;;;;;;;5050032;28;20210;-87
2023/04/15 03:31:53;;;;;;;5.63;4.80;;;;;;;;;;5044768;28;20255;-86
2023/04/15 03:34:20;;;;;;;8.83;5.07;;;;;;;;;;5045331;28;20634;-87
2023/04/15 03:36:47;;;;;;;7.00;4.60;;;;;;;;;;5041994;28;20256;-86
2023/04/15 03:39:14;;;;;;;5.50;5.00;;;;;;;;;;5042339;28;20208;-86
2023/04/15 03:41:41;;;;;;;6.77;4.90;;;;;;;;;;5043594;28;20246;-86
2023/04/15 03:44:10;;;;;;;7.07;5.20;;;;;;;;;;5045305;28;20222;-86
2023/04/15 03:46:37;;;;;;;6.17;4.90;;;;;;;;;;5046769;28;20225;-87
2023/04/15 03:49:04;;;;;;;4.67;4.20;;;;;;;;;;5044418;28;20212;-87
2023/04/15 03:51:31;;;;;;;6.13;4.43;;;;;;;;;;5040706;28;20240;-86
2023/04/15 03:53:58;;;;;;;6.43;4.40;;;;;;;;;;5039823;28;20246;-87
2023/04/15 03:56:25;;;;;;;6.33;4.63;;;;;;;;;;5045239;28;20230;-84
2023/04/15 03:58:52;;;;;;;10.93;5.07;;;;;;;;;;5047780;28;20207;-86
2023/04/15 04:01:21;;;;;;;6.23;4.50;;;;;;;;;;5045883;28;20237;-86
2023/04/15 04:03:50;;;;;;;7.07;4.80;;;;;;;;;;5048341;28;20229;-86
2023/04/15 04:06:17;;;;;;;5.40;4.90;;;;;;;;;;5052153;28;20230;-86
2023/04/15 04:08:44;;;;;;;6.23;4.37;;;;;;;;;;5046796;28;20213;-86
2023/04/15 04:11:11;;;;;;;5.10;4.60;;;;;;;;;;5045084;28;20230;-87
2023/04/15 04:13:38;;;;;;;5.50;4.80;;;;;;;;;;5046975;28;20619;-87
2023/04/15 04:16:06;;;;;;;6.83;4.87;;;;;;;;;;5045552;28;20234;-87
2023/04/15 04:18:34;;;;;;;11.33;5.40;;;;;;;;;;5047555;28;20214;-86
2023/04/15 04:21:01;;;;;;;5.27;4.77;;;;;;;;;;5048665;28;20254;-86
2023/04/15 04:23:28;;;;;;;5.43;4.73;;;;;;;;;;5042629;28;20212;-87
2023/04/15 04:25:55;;;;;;;5.90;4.40;;;;;;;;;;5044740;28;20235;-88
2023/04/15 04:28:23;;;;;;;6.73;4.70;;;;;;;;;;5053207;28;20213;-87
2023/04/15 04:30:50;;;;;;;6.60;4.30;;;;;;;;;;5046876;28;20227;-87
2023/04/15 04:33:17;;;;;;;5.07;4.50;;;;;;;;;;5048664;28;20229;-86
2023/04/15 04:35:45;;;;;;;6.93;4.20;;;;;;;;;;5045159;28;20711;-86
2023/04/15 04:38:12;;;;;;;7.40;4.50;;;;;;;;;;5044923;28;20233;-86
2023/04/15 04:40:40;;;;;;;7.63;4.27;;;;;;;;;;5046560;28;20239;-85
2023/04/15 04:43:07;;;;;;;5.10;4.40;;;;;;;;;;5048902;28;20214;-87
2023/04/15 04:45:34;;;;;;;5.13;4.57;;;;;;;;;;5049917;28;20220;-87
2023/04/15 04:48:01;;;;;;;5.63;4.13;;;;;;;;;;5048053;28;20214;-86
2023/04/15 04:50:28;;;;;;;4.47;4.10;;;;;;;;;;5039577;28;20207;-87
2023/04/15 04:52:56;;;;;;;4.60;4.20;;;;;;;;;;5048057;28;20209;-87
2023/04/15 04:55:23;;;;;;;5.00;4.50;;;;;;;;;;5039960;28;20238;-86
2023/04/15 04:57:50;;;;;;;4.67;4.27;;;;;;;;;;5047691;28;20206;-87
2023/04/15 05:00:18;;;;;;;6.27;4.37;;;;;;;;;;5047199;28;20216;-86
2023/04/15 05:02:45;;;;;;;5.10;4.60;;;;;;;;;;5047618;28;20211;-87
2023/04/15 05:05:12;;;;;;;5.20;4.70;;;;;;;;;;5049910;28;20222;-87
2023/04/15 05:07:39;;;;;;;5.73;4.37;;;;;;;;;;5055414;28;20302;-86
2023/04/15 05:10:08;;;;;;;6.00;4.30;;;;;;;;;;5046229;28;20213;-87
2023/04/15 05:12:37;;;;;;;5.03;4.33;;;;;;;;;;5045673;28;20233;-86
2023/04/15 05:15:04;;;;;;;4.77;4.37;;;;;;;;;;5041986;28;20242;-86
2023/04/15 05:17:33;;;;;;;5.07;4.57;;;;;;;;;;5037535;28;20231;-85
2023/04/15 05:20:01;;;;;;;5.57;4.63;;;;;;;;;;5042168;28;20221;-87
2023/04/15 05:22:28;;;;;;;6.50;4.57;;;;;;;;;;5049594;28;20244;-85
2023/04/15 05:24:55;;;;;;;5.57;4.57;;;;;;;;;;5043446;28;20238;-87
2023/04/15 05:27:23;;;;;;;7.47;4.97;;;;;;;;;;5043802;28;20233;-86
2023/04/15 05:29:50;;;;;;;5.27;4.07;;;;;;;;;;5046585;28;20218;-87
2023/04/15 05:32:18;;;;;;;6.20;4.73;;;;;;;;;;5046830;28;20230;-87
2023/04/15 05:34:45;;;;;;;9.07;4.80;;;;;;;;;;5043763;28;20707;-87
2023/04/15 05:37:12;;;;;;;7.77;4.80;;;;;;;;;;5042778;28;20250;-87
2023/04/15 05:39:39;;;;;;;5.30;4.73;;;;;;;;;;5044899;28;20208;-87
2023/04/15 05:42:06;;;;;;;4.83;4.20;;;;;;;;;;5043471;28;20227;-87
2023/04/15 05:44:35;;;;;;;9.93;5.23;;;;;;;;;;5044071;28;20219;-87
2023/04/15 05:47:02;;;;;;;12.57;6.03;;;;;;;;;;5050930;28;20241;-86
2023/04/15 05:49:29;;;;;;;7.93;5.97;;;;;;;;;;5051268;28;20210;-88
2023/04/15 05:51:56;;;;;;;9.27;5.60;;;;;;;;;;5038365;28;20222;-87
2023/04/15 05:54:23;;;;;;;6.73;6.00;;;;;;;;;;5043055;28;20630;-88
2023/04/15 05:56:50;;;;;;;12.07;6.93;;;;;;;;;;5045651;28;20577;-88
2023/04/15 05:59:18;;;;;;;8.20;6.23;;;;;;;;;;5048840;28;20289;-88
2023/04/15 06:01:46;;;;;;;10.23;6.20;;;;;;;;;;5051116;28;20237;-88
2023/04/15 06:04:14;;;;;;;6.37;5.50;;;;;;;;;;5042846;28;20253;-88
2023/04/15 06:06:41;;;;;;;6.63;6.00;;;;;;;;;;5043503;28;20225;-87
2023/04/15 06:09:08;;;;;;;7.37;5.97;;;;;;;;;;5041063;28;20211;-87
2023/04/15 06:11:40;;;;;;;8.23;6.00;;;;;;;;;;5045919;28;20229;-86
2023/04/15 06:14:07;;;;;;;11.03;6.17;;;;;;;;;;5046302;28;20222;-87
2023/04/15 06:16:35;;;;;;;11.97;5.00;;;;;;;;;;5043480;28;20237;-87
2023/04/15 06:19:03;;;;;;;6.60;5.83;;;;;;;;;;5042260;28;20595;-86
2023/04/15 06:21:31;;;;;;;11.30;6.80;;;;;;;;;;5049686;28;20240;-87
2023/04/15 06:24:00;;;;;;;9.57;6.47;;;;;;;;;;5045580;28;20252;-87
2023/04/15 06:26:27;;;;;;;9.90;6.50;;;;;;;;;;5046382;28;20222;-86
2023/04/15 06:28:54;;;;;;;11.93;6.80;;;;;;;;;;5049772;28;20208;-87
2023/04/15 06:31:23;;;;;;;9.57;7.00;;;;;;;;;;5047910;28;20395;-86
2023/04/15 06:33:50;;;;;;;10.60;6.77;;;;;;;;;;5042972;28;20226;-87
2023/04/15 06:36:20;;;;;;;10.03;7.40;;;;;;;;;;5042133;28;20256;-87
2023/04/15 06:38:47;;;;;;;8.57;6.50;;;;;;;;;;5043834;28;20203;-87
2023/04/15 06:41:14;;;;;;;11.10;7.20;;;;;;;;;;5039837;28;20246;-87
2023/04/15 06:43:42;;;;;;;10.07;7.60;;;;;;;;;;5034047;28;20217;-86
2023/04/15 06:46:09;;;;;;;9.20;6.97;;;;;;;;;;5046656;28;20709;-86
2023/04/15 06:48:36;;;;;;;6.87;6.17;;;;;;;;;;5045346;28;20198;-89
2023/04/15 06:51:04;;;;;;;10.87;7.57;;;;;;;;;;5051452;28;20228;-88
2023/04/15 06:53:32;;;;;;;8.47;7.10;;;;;;;;;;5044074;28;20204;-87
2023/04/15 06:56:00;;;;;;;13.63;6.97;;;;;;;;;;5041053;28;20314;-86
2023/04/15 06:58:28;;;;;;;9.87;7.07;;;;;;;;;;5034120;28;20253;-86
2023/04/15 07:00:55;;;;;;;11.13;7.13;;;;;;;;;;5038684;28;20237;-86
2023/04/15 07:03:22;;;;;;;14.57;8.70;;;;;;;;;;5033447;28;20210;-87
2023/04/15 07:05:49;;;;;;;14.13;8.57;;;;;;;;;;5042753;28;20237;-84
2023/04/15 07:08:16;;;;;;;8.80;6.47;;;;;;;;;;5038386;28;20206;-86
2023/04/15 07:10:44;;;;;;;10.23;5.87;;;;;;;;;;5032276;28;20237;-88
2023/04/15 07:13:11;;;;;;;7.37;5.50;;;;;;;;;;5033235;28;20688;-88
2023/04/15 07:15:44;;;;;;;6.63;5.93;;;;;;;;;;5042751;28;20233;-86
2023/04/15 07:18:12;;;;;;;7.13;5.43;;;;;;;;;;5053512;28;20209;-87
2023/04/15 07:20:40;;;;;;;7.67;6.00;;;;;;;;;;5052398;28;20754;-87
2023/04/15 07:23:15;;;;;;;7.17;5.33;;;;;;;;;;5048405;28;20218;-87
2023/04/15 07:25:42;;;;;;;7.13;5.13;;;;;;;;;;5049011;28;20312;-86
2023/04/15 07:28:10;;;;;;;7.73;5.60;;;;;;;;;;5053040;28;20578;-86
2023/04/15 07:30:40;;;;;;;5.43;4.90;;;;;;;;;;5043168;28;20584;-86
2023/04/15 07:33:07;;;;;;;7.40;5.83;;;;;;;;;;5049079;28;20251;-89
2023/04/15 07:35:34;;;;;;;9.00;5.83;;;;;;;;;;5053134;28;20234;-88
2023/04/15 07:38:01;;;;;;;8.83;6.53;;;;;;;;;;5049883;28;20694;-88
2023/04/15 07:40:28;;;;;;;8.73;6.23;;;;;;;;;;5052839;28;20838;-88
2023/04/15 07:42:57;;;;;;;8.80;6.83;;;;;;;;;;5053246;28;20638;-88
2023/04/15 07:45:34;;;;;;;7.60;6.80;;;;;;;;;;5037418;28;20230;-88
2023/04/15 07:48:01;;;;;;;8.97;6.00;;;;;;;;;;5033619;28;20664;-88
2023/04/15 07:50:29;;;;;;;6.17;5.33;;;;;;;;;;5033221;28;20226;-87
2023/04/15 07:52:56;;;;;;;7.93;5.83;;;;;;;;;;5033541;28;20257;-87
2023/04/15 07:55:23;;;;;;;6.80;6.03;;;;;;;;;;5033206;28;20223;-88
2023/04/15 07:57:51;;;;;;;9.17;6.20;;;;;;;;;;5045292;28;20206;-89
2023/04/15 08:00:18;;;;;;;8.00;6.00;;;;;;;;;;5050247;28;20206;-89
2023/04/15 08:02:47;;;;;;;8.53;6.90;;;;;;;;;;5034829;28;20234;-90
2023/04/15 08:05:14;;;;;;;10.80;6.43;;;;;;;;;;5034316;28;20226;-90
2023/04/15 08:07:41;;;;;;;6.70;5.77;;;;;;;;;;5036198;28;20222;-90
2023/04/15 08:10:09;;;;;;;7.97;6.03;;;;;;;;;;5048155;28;20197;-90
2023/04/15 08:12:36;;;;;;;7.10;6.03;;;;;;;;;;5048830;28;20288;-89
2023/04/15 08:15:04;;;;;;;7.43;6.27;;;;;;;;;;5055647;28;20233;-90
2023/04/15 08:17:31;;;;;;;7.20;6.50;;;;;;;;;;5064144;28;21029;-91
2023/04/15 08:19:59;;;;;;;8.97;6.90;;;;;;;;;;5065596;28;20217;-88
2023/04/15 08:22:27;;;;;;;7.53;6.80;;;;;;;;;;5067649;28;20327;-88
2023/04/15 08:24:54;;;;;;;9.20;6.27;;;;;;;;;;5045192;28;20290;-91
2023/04/15 08:27:21;;;;;;;7.97;6.60;;;;;;;;;;5033311;28;20234;-89
2023/04/15 08:29:48;;;;;;;7.20;6.33;;;;;;;;;;5040766;28;20201;-90
2023/04/15 08:32:33;;;;;;;8.47;7.00;;;;;;;;;;5044215;28;20229;-88
2023/04/15 08:35:01;;;;;;;8.53;6.47;;;;;;;;;;5034310;28;20237;-88
2023/04/15 08:37:34;;;;;;;6.77;6.00;;;;;;;;;;5032593;28;20591;-87
2023/04/15 08:40:01;;;;;;;8.90;6.73;;;;;;;;;;5032857;28;20195;-89
2023/04/15 08:42:31;;;;;;;8.80;6.87;;;;;;;;;;5032241;28;20231;-89
2023/04/15 08:45:00;;;;;;;7.43;6.37;;;;;;;;;;5053736;28;20218;-89
2023/04/15 08:47:30;;;;;;;8.40;6.90;;;;;;;;;;5042715;28;20614;-88
2023/04/15 08:49:58;;;;;;;6.77;6.07;;;;;;;;;;5036494;28;20211;-89
2023/04/15 08:52:26;;;;;;;8.10;5.67;;;;;;;;;;5036310;28;20229;-89
2023/04/15 08:54:55;;;;;;;7.70;5.70;;;;;;;;;;5036428;28;20292;-89
2023/04/15 08:57:24;;;;;;;7.30;5.60;;;;;;;;;;5035711;28;20708;-88
2023/04/15 08:59:51;;;;;;;6.67;5.63;;;;;;;;;;5050933;28;20202;-90
2023/04/15 09:02:18;;;;;;;6.10;5.10;;;;;;;;;;5050803;28;20232;-89
2023/04/15 09:04:45;;;;;;;5.43;4.50;;;;;;;;;;5036635;28;20227;-90
2023/04/15 09:07:13;;;;;;;6.77;4.43;;;;;;;;;;5036135;28;20241;-89
2023/04/15 09:09:41;;;;;;;5.37;4.30;;;;;;;;;;5036119;28;20233;-88
2023/04/15 09:12:15;;;;;;;5.73;3.87;;;;;;;;;;5035913;28;20235;-90
2023/04/15 09:14:42;;;;;;;4.40;4.00;;;;;;;;;;5036955;28;20229;-91
2023/04/15 09:17:11;;;;;;;5.57;4.00;;;;;;;;;;5041625;28;20237;-90
2023/04/15 09:19:38;;;;;;;3.93;3.63;;;;;;;;;;5055818;28;20233;-90
2023/04/15 09:22:05;;;;;;;7.80;5.40;;;;;;;;;;5045484;28;20233;-90
2023/04/15 09:24:37;;;;;;;3.50;3.20;;;;;;;;;;5055822;28;20236;-89
2023/04/15 09:27:06;;;;;;;4.13;3.10;;;;;;;;;;5054004;28;20238;-89
2023/04/15 09:29:33;;;;;;;3.60;2.93;;;;;;;;;;5035677;28;20242;-89
2023/04/15 09:32:10;;;;;;;3.37;3.10;;;;;;;;;;5022376;28;20222;-88
2023/04/15 09:34:37;;;;;;;3.10;2.90;;;;;;;;;;5035425;28;20230;-87
2023/04/15 09:37:04;;;;;;;3.03;2.73;;;;;;;;;;5035700;28;20677;-89
2023/04/15 09:39:46;;;;;;;3.17;2.87;;;;;;;;;;5035405;28;20210;-89
2023/04/15 09:42:16;;;;;;;3.43;2.20;;;;;;;;;;5053908;28;20320;-89
2023/04/15 09:44:43;;;;;;;1.90;1.80;;;;;;;;;;5044591;28;20222;-86
2023/04/15 09:47:10;;;;;;;1.87;1.77;;;;;;;;;;5034638;28;20269;-89
2023/04/15 09:49:37;;;;;;;26.50;2.70;;;;;;;;;;5051458;28;20672;-88
2023/04/15 09:52:05;;;;;;;4.50;1.93;;;;;;;;;;5052812;28;20229;-88
2023/04/15 09:54:35;;;;;;;2.40;2.23;;;;;;;;;;5055007;28;20230;-88
2023/04/15 09:57:07;;;;;;;2.10;2.00;;;;;;;;;;5053623;28;20257;-88
2023/04/15 09:59:35;;;;;;;2.43;2.10;;;;;;;;;;5055053;28;20644;-87
2023/04/15 10:02:05;;;;;;;2.13;1.70;;;;;;;;;;5054108;28;20233;-85
2023/04/15 10:04:33;;;;;;;2.13;2.03;;;;;;;;;;5054907;28;20260;-84
2023/04/15 10:07:01;;;;;;;1.90;1.77;;;;;;;;;;5048450;28;20245;-84
2023/04/15 10:09:28;;;;;;;1.93;1.83;;;;;;;;;;5033726;28;20215;-85
2023/04/15 10:11:55;;;;;;;2.73;2.10;;;;;;;;;;5033572;28;20285;-85
2023/04/15 10:14:23;;;;;;;3.83;2.50;;;;;;;;;;5039496;28;20222;-86
2023/04/15 10:16:53;;;;;;;3.43;2.30;;;;;;;;;;5052891;28;20235;-86
2023/04/15 10:19:24;;;;;;;3.67;2.20;;;;;;;;;;5035112;28;20199;-85
2023/04/15 10:21:51;;;;;;;2.50;2.30;;;;;;;;;;5033431;28;20231;-86
2023/04/15 10:24:19;;;;;;;2.83;2.10;;;;;;;;;;5034270;28;20231;-88
2023/04/15 10:26:46;;;;;;;2.40;2.20;;;;;;;;;;5033837;28;20237;-87
2023/04/15 10:29:13;;;;;;;2.67;2.47;;;;;;;;;;5034061;28;20183;-87
2023/04/15 10:31:41;;;;;;;3.00;2.13;;;;;;;;;;5038983;28;20279;-87
2023/04/15 10:34:10;;;;;;;2.17;2.07;;;;;;;;;;5053289;28;20311;-87
2023/04/15 10:36:37;;;;;;;2.20;2.10;;;;;;;;;;5053557;28;20245;-87
2023/04/15 10:39:24;;;;;;;3.27;2.37;;;;;;;;;;5053925;28;20228;-87
2023/04/15 10:42:06;;;;;;;2.53;2.33;;;;;;;;;;5052109;28;20233;-88
2023/04/15 10:44:33;;;;;;;3.70;2.30;;;;;;;;;;5042290;28;20221;-88
2023/04/15 10:47:00;;;;;;;2.90;2.67;;;;;;;;;;5048532;28;20231;-88
2023/04/15 10:49:28;;;;;;;2.60;2.40;;;;;;;;;;5035659;28;20210;-87
2023/04/15 10:51:58;;;;;;;3.20;2.40;;;;;;;;;;5033163;28;20234;-88
2023/04/15 10:54:32;;;;;;;2.40;2.20;;;;;;;;;;5033744;28;20231;-87
2023/04/15 10:57:08;;;;;;;2.27;2.07;;;;;;;;;;5034301;28;20322;-86
2023/04/15 10:59:37;;;;;;;2.43;2.23;;;;;;;;;;5033649;28;20779;-85
2023/04/15 11:02:05;;;;;;;2.30;2.17;;;;;;;;;;5041254;28;20229;-86
2023/04/15 11:04:56;;;;;;;2.70;2.50;;;;;;;;;;5053797;28;20272;-88
2023/04/15 11:07:38;;;;;;;2.90;2.70;;;;;;;;;;5055152;28;20234;-89
2023/04/15 11:10:25;;;;;;;2.40;2.20;;;;;;;;;;5054409;28;20206;-87
2023/04/15 11:12:54;;;;;;;2.40;2.20;;;;;;;;;;5053910;28;20236;-88
2023/04/15 11:15:29;;;;;;;2.50;2.30;;;;;;;;;;5033500;28;20237;-87
2023/04/15 11:17:56;;;;;;;1.90;1.70;;;;;;;;;;5033986;28;20217;-87
2023/04/15 11:20:24;;;;;;;2.13;1.93;;;;;;;;;;5033217;28;20253;-87
2023/04/15 11:22:53;;;;;;;1.90;1.80;;;;;;;;;;5034342;28;20229;-87
2023/04/15 11:25:24;;;;;;;2.10;1.90;;;;;;;;;;5034009;28;20231;-87
2023/04/15 11:27:53;;;;;;;2.43;2.23;;;;;;;;;;5033891;28;20211;-87
2023/04/15 11:30:22;;;;;;;5.17;1.87;;;;;;;;;;5033117;28;20261;-86
2023/04/15 11:32:50;;;;;;;2.87;1.87;;;;;;;;;;5033906;28;20214;-86
2023/04/15 11:35:17;;;;;;;1.60;1.50;;;;;;;;;;5033182;28;20230;-86
2023/04/15 11:37:44;;;;;;;1.80;1.70;;;;;;;;;;5033790;28;20242;-87
2023/04/15 11:40:12;;;;;;;5.13;1.87;;;;;;;;;;5038959;28;20198;-87
2023/04/15 11:42:39;;;;;;;2.20;2.00;;;;;;;;;;5024970;28;20234;-87
2023/04/15 11:45:10;;;;;;;2.80;1.80;;;;;;;;;;5041368;28;20226;-87
2023/04/15 11:47:38;;;;;;;2.20;2.00;;;;;;;;;;5032663;28;20968;-88
2023/04/15 11:50:15;;;;;;;1.90;1.80;;;;;;;;;;5033206;28;20657;-87
2023/04/15 11:52:42;;;;;;;2.40;1.77;;;;;;;;;;5048902;28;20252;-86
2023/04/15 11:55:10;;;;;;;2.13;1.93;;;;;;;;;;5053351;28;20226;-86
2023/04/15 11:57:37;;;;;;;2.83;2.23;;;;;;;;;;5034230;28;20234;-87
2023/04/15 12:00:04;;;;;;;2.87;2.00;;;;;;;;;;5042117;28;20721;-88
2023/04/15 12:02:32;;;;;;;2.47;2.27;;;;;;;;;;5045471;28;20287;-87
2023/04/15 12:05:05;;;;;;;2.43;2.20;;;;;;;;;;5035651;28;20232;-87
2023/04/15 12:07:32;;;;;;;3.33;1.90;;;;;;;;;;5044078;28;20244;-87
2023/04/15 12:10:01;;;;;;;2.03;1.93;;;;;;;;;;5043754;28;20695;-88
2023/04/15 12:12:29;;;;;;;2.03;1.80;;;;;;;;;;5038588;28;20222;-87
2023/04/15 12:14:58;;;;;;;2.07;1.97;;;;;;;;;;5038055;28;20238;-87
2023/04/15 12:17:26;;;;;;;2.57;2.30;;;;;;;;;;5041345;28;20576;-83
2023/04/15 12:19:57;;;;;;;2.63;2.30;;;;;;;;;;5041794;28;20209;-86
2023/04/15 12:22:25;;;;;;;2.27;2.07;;;;;;;;;;5046809;28;20592;-86
2023/04/15 12:24:56;;;;;;;2.23;2.03;;;;;;;;;;5051723;28;20237;-86
2023/04/15 12:27:27;;;;;;;2.03;1.80;;;;;;;;;;5043617;28;20685;-86
2023/04/15 12:30:04;;;;;;;2.63;2.30;;;;;;;;;;5046382;28;20214;-86
2023/04/15 12:32:35;;;;;;;2.97;2.00;;;;;;;;;;5036621;28;20237;-87
2023/04/15 12:35:02;;;;;;;1.80;1.70;;;;;;;;;;5052474;28;20236;-87
2023/04/15 12:37:31;;;;;;;2.20;2.10;;;;;;;;;;5040674;28;20241;-85
2023/04/15 12:39:58;;;;;;;2.40;2.13;;;;;;;;;;5037667;28;20198;-86
2023/04/15 12:42:25;;;;;;;1.87;1.73;;;;;;;;;;5046139;28;20230;-86
2023/04/15 12:44:52;;;;;;;2.10;1.90;;;;;;;;;;5039805;28;20245;-85
2023/04/15 12:47:21;;;;;;;2.60;1.80;;;;;;;;;;5033492;28;20716;-85
2023/04/15 12:49:49;;;;;;;2.03;1.93;;;;;;;;;;5034041;28;20278;-85
2023/04/15 12:52:16;;;;;;;2.20;1.80;;;;;;;;;;5044851;28;20230;-86
2023/04/15 12:54:45;;;;;;;2.20;2.00;;;;;;;;;;5043472;28;20223;-85
2023/04/15 12:57:12;;;;;;;1.93;1.83;;;;;;;;;;5045642;28;20226;-85
2023/04/15 12:59:39;;;;;;;3.37;1.87;;;;;;;;;;5042991;28;20215;-84
2023/04/15 13:02:06;;;;;;;2.00;1.90;;;;;;;;;;5032087;28;20249;-84
2023/04/15 13:04:33;;;;;;;2.07;1.90;;;;;;;;;;5036005;28;20249;-85
2023/04/15 13:07:01;;;;;;;2.20;2.10;;;;;;;;;;5034190;28;20226;-84
2023/04/15 13:09:28;;;;;;;2.63;1.97;;;;;;;;;;5039778;28;20203;-84
2023/04/15 13:11:58;;;;;;;1.70;1.60;;;;;;;;;;5045186;28;20325;-84
2023/04/15 13:14:25;;;;;;;1.80;1.70;;;;;;;;;;5041034;28;20226;-84
2023/04/15 13:16:53;;;;;;;2.60;1.90;;;;;;;;;;5032957;28;20317;-84
2023/04/15 13:19:20;;;;;;;4.23;2.07;;;;;;;;;;5038680;28;20203;-83
2023/04/15 13:21:49;;;;;;;3.20;2.20;;;;;;;;;;5039834;28;20302;-84
2023/04/15 13:24:16;;;;;;;2.60;2.40;;;;;;;;;;5049465;28;20590;-84
2023/04/15 13:26:43;;;;;;;3.87;2.50;;;;;;;;;;5041160;28;20239;-84
2023/04/15 13:29:12;;;;;;;2.33;2.17;;;;;;;;;;5048617;28;20213;-85
2023/04/15 13:31:39;;;;;;;2.20;2.10;;;;;;;;;;5031528;28;20230;-84
2023/04/15 13:34:06;;;;;;;2.67;2.47;;;;;;;;;;5033972;28;20233;-84
2023/04/15 13:36:34;;;;;;;2.83;2.63;;;;;;;;;;5038607;28;20230;-85
2023/04/15 13:39:01;;;;;;;3.43;2.37;;;;;;;;;;5038934;28;20635;-84
2023/04/15 13:41:30;;;;;;;4.27;2.97;;;;;;;;;;5036514;28;20223;-85
2023/04/15 13:43:57;;;;;;;6.60;3.80;;;;;;;;;;5036331;28;20723;-84
2023/04/15 13:46:25;;;;;;;5.90;3.60;;;;;;;;;;5043481;28;20317;-84
2023/04/15 13:48:52;;;;;;;5.73;3.97;;;;;;;;;;5051964;28;20216;-84
2023/04/15 13:51:19;;;;;;;4.53;3.53;;;;;;;;;;5032144;28;20223;-85
2023/04/15 13:53:47;;;;;;;4.33;3.07;;;;;;;;;;5040862;28;20198;-84
2023/04/15 13:56:14;;;;;;;4.17;2.73;;;;;;;;;;5034411;28;20238;-84
2023/04/15 13:58:41;;;;;;;3.33;2.90;;;;;;;;;;5038287;28;20221;-84
2023/04/15 14:01:08;;;;;;;2.43;2.27;;;;;;;;;;5037408;28;20236;-84
2023/04/15 14:03:36;;;;;;;3.77;2.30;;;;;;;;;;5041427;28;20233;-84
2023/04/15 14:06:03;;;;;;;2.57;2.37;;;;;;;;;;5036032;28;20234;-84
2023/04/15 14:08:30;;;;;;;2.40;2.20;;;;;;;;;;5040082;28;20209;-84
2023/04/15 14:10:58;;;;;;;2.10;1.90;;;;;;;;;;5031726;28;20238;-85
2023/04/15 14:13:25;;;;;;;2.50;2.23;;;;;;;;;;5037745;28;20671;-84
2023/04/15 14:15:52;;;;;;;2.50;2.30;;;;;;;;;;5037794;28;20243;-84
2023/04/15 14:18:21;;;;;;;1.90;1.80;;;;;;;;;;5035449;28;20215;-85
2023/04/15 14:20:49;;;;;;;2.07;1.97;;;;;;;;;;5051773;28;20241;-83
2023/04/15 14:23:16;;;;;;;3.03;1.87;;;;;;;;;;5041510;28;20203;-86
2023/04/15 14:25:43;;;;;;;1.90;1.80;;;;;;;;;;5037604;28;20239;-85
2023/04/15 14:28:11;;;;;;;1.77;1.67;;;;;;;;;;5052290;28;20216;-85
2023/04/15 14:30:39;;;;;;;1.90;1.80;;;;;;;;;;5046645;28;20237;-86
2023/04/15 14:33:06;;;;;;;1.53;1.43;;;;;;;;;;5042331;28;20778;-84
2023/04/15 14:35:33;;;;;;;1.60;1.50;;;;;;;;;;5031444;28;20231;-84
2023/04/15 14:38:01;;;;;;;2.50;2.00;;;;;;;;;;5049070;28;20532;-84
2023/04/15 14:40:29;;;;;;;1.93;1.70;;;;;;;;;;5048446;28;20556;-85
2023/04/15 14:42:56;;;;;;;2.00;1.73;;;;;;;;;;5040705;28;20206;-84
2023/04/15 14:45:23;;;;;;;1.90;1.80;;;;;;;;;;5039343;28;20233;-84
2023/04/15 14:47:51;;;;;;;2.10;1.90;;;;;;;;;;5031269;28;20673;-85